sensor_id;sensor_type;location;lat;lon;timestamp;temperature;humidity
70068;DHT22;57425;51.616;6.680;2023-07-08T00:00:53;25.80;45.90
70068;DHT22;57425;51.616;6.680;2023-07-08T00:03:20;25.80;46.00
70068;DHT22;57425;51.616;6.680;2023-07-08T00:05:47;25.80;46.10
70068;DHT22;57425;51.616;6.680;2023-07-08T00:08:17;25.70;46.10
70068;DHT22;57425;51.616;6.680;2023-07-08T00:10:44;25.70;46.00
70068;DHT22;57425;51.616;6.680;2023-07-08T00:13:10;25.70;46.10
70068;DHT22;57425;51.616;6.680;2023-07-08T00:15:37;25.70;46.10
70068;DHT22;57425;51.616;6.680;2023-07-08T00:18:12;25.70;46.00
70068;DHT22;57425;51.616;6.680;2023-07-08T00:20:44;25.70;46.00
70068;DHT22;57425;51.616;6.680;2023-07-08T00:23:10;25.70;46.70
70068;DHT22;57425;51.616;6.680;2023-07-08T00:25:37;25.60;46.00
70068;DHT22;57425;51.616;6.680;2023-07-08T00:28:15;25.60;46.00
70068;DHT22;57425;51.616;6.680;2023-07-08T00:30:40;25.60;46.10
70068;DHT22;57425;51.616;6.680;2023-07-08T00:33:06;25.60;46.10
70068;DHT22;57425;51.616;6.680;2023-07-08T00:38:09;25.60;46.10
70068;DHT22;57425;51.616;6.680;2023-07-08T00:40:38;25.60;46.20
70068;DHT22;57425;51.616;6.680;2023-07-08T00:43:14;25.60;46.20
70068;DHT22;57425;51.616;6.680;2023-07-08T00:45:51;25.50;46.20
70068;DHT22;57425;51.616;6.680;2023-07-08T00:48:29;25.50;46.20
70068;DHT22;57425;51.616;6.680;2023-07-08T00:50:57;25.50;46.90
70068;DHT22;57425;51.616;6.680;2023-07-08T00:53:24;25.50;46.40
70068;DHT22;57425;51.616;6.680;2023-07-08T00:55:57;25.50;46.40
70068;DHT22;57425;51.616;6.680;2023-07-08T00:58:25;25.50;46.30
70068;DHT22;57425;51.616;6.680;2023-07-08T01:00:53;25.40;46.30
70068;DHT22;57425;51.616;6.680;2023-07-08T01:03:21;25.40;47.00
70068;DHT22;57425;51.616;6.680;2023-07-08T01:05:47;25.40;46.40
70068;DHT22;57425;51.616;6.680;2023-07-08T01:08:13;25.40;46.50
70068;DHT22;57425;51.616;6.680;2023-07-08T01:10:52;25.40;46.50
70068;DHT22;57425;51.616;6.680;2023-07-08T01:13:19;25.40;46.50
70068;DHT22;57425;51.616;6.680;2023-07-08T01:15:47;25.40;46.60
70068;DHT22;57425;51.616;6.680;2023-07-08T01:18:15;25.30;46.60
70068;DHT22;57425;51.616;6.680;2023-07-08T01:20:42;25.30;46.60
70068;DHT22;57425;51.616;6.680;2023-07-08T01:23:09;25.30;46.60
70068;DHT22;57425;51.616;6.680;2023-07-08T01:25:35;25.30;47.30
70068;DHT22;57425;51.616;6.680;2023-07-08T01:28:01;25.30;46.60
70068;DHT22;57425;51.616;6.680;2023-07-08T01:30:28;25.30;46.70
70068;DHT22;57425;51.616;6.680;2023-07-08T01:33:05;25.30;46.60
70068;DHT22;57425;51.616;6.680;2023-07-08T01:35:32;25.30;46.60
70068;DHT22;57425;51.616;6.680;2023-07-08T01:38:01;25.30;46.70
70068;DHT22;57425;51.616;6.680;2023-07-08T01:40:31;25.30;46.70
70068;DHT22;57425;51.616;6.680;2023-07-08T01:42:58;25.20;46.60
70068;DHT22;57425;51.616;6.680;2023-07-08T01:45:26;25.20;46.60
70068;DHT22;57425;51.616;6.680;2023-07-08T01:48:02;25.20;47.20
70068;DHT22;57425;51.616;6.680;2023-07-08T01:50:29;25.20;46.60
70068;DHT22;57425;51.616;6.680;2023-07-08T01:52:59;25.20;46.70
70068;DHT22;57425;51.616;6.680;2023-07-08T01:55:26;25.20;46.70
70068;DHT22;57425;51.616;6.680;2023-07-08T01:57:54;25.20;46.70
70068;DHT22;57425;51.616;6.680;2023-07-08T02:00:21;25.10;46.60
70068;DHT22;57425;51.616;6.680;2023-07-08T02:02:47;25.10;46.50
70068;DHT22;57425;51.616;6.680;2023-07-08T02:05:13;25.10;46.60
70068;DHT22;57425;51.616;6.680;2023-07-08T02:07:39;25.10;46.70
70068;DHT22;57425;51.616;6.680;2023-07-08T02:10:05;25.10;46.70
70068;DHT22;57425;51.616;6.680;2023-07-08T02:12:31;25.10;46.80
70068;DHT22;57425;51.616;6.680;2023-07-08T02:14:59;25.10;46.80
70068;DHT22;57425;51.616;6.680;2023-07-08T02:17:24;25.10;46.80
70068;DHT22;57425;51.616;6.680;2023-07-08T02:19:50;25.00;46.80
70068;DHT22;57425;51.616;6.680;2023-07-08T02:22:16;25.00;46.80
70068;DHT22;57425;51.616;6.680;2023-07-08T02:24:41;25.00;46.80
70068;DHT22;57425;51.616;6.680;2023-07-08T02:27:07;25.00;46.80
70068;DHT22;57425;51.616;6.680;2023-07-08T02:29:32;25.00;46.80
70068;DHT22;57425;51.616;6.680;2023-07-08T02:31:58;25.00;46.80
70068;DHT22;57425;51.616;6.680;2023-07-08T02:34:23;25.00;46.90
70068;DHT22;57425;51.616;6.680;2023-07-08T02:36:49;24.90;46.90
70068;DHT22;57425;51.616;6.680;2023-07-08T02:39:15;24.90;46.90
70068;DHT22;57425;51.616;6.680;2023-07-08T02:41:40;24.90;47.00
70068;DHT22;57425;51.616;6.680;2023-07-08T02:44:06;24.90;47.10
70068;DHT22;57425;51.616;6.680;2023-07-08T02:46:31;24.90;47.10
70068;DHT22;57425;51.616;6.680;2023-07-08T02:48:57;24.90;47.10
70068;DHT22;57425;51.616;6.680;2023-07-08T02:51:22;24.80;47.10
70068;DHT22;57425;51.616;6.680;2023-07-08T02:53:49;24.80;47.20
70068;DHT22;57425;51.616;6.680;2023-07-08T02:56:15;24.80;47.30
70068;DHT22;57425;51.616;6.680;2023-07-08T02:58:40;24.80;47.20
70068;DHT22;57425;51.616;6.680;2023-07-08T03:01:06;24.80;47.30
70068;DHT22;57425;51.616;6.680;2023-07-08T03:03:32;24.80;47.90
70068;DHT22;57425;51.616;6.680;2023-07-08T03:06:00;24.80;47.40
70068;DHT22;57425;51.616;6.680;2023-07-08T03:08:27;24.70;47.40
70068;DHT22;57425;51.616;6.680;2023-07-08T03:11:00;24.70;47.30
70068;DHT22;57425;51.616;6.680;2023-07-08T03:13:27;24.70;47.20
70068;DHT22;57425;51.616;6.680;2023-07-08T03:15:53;24.70;47.40
70068;DHT22;57425;51.616;6.680;2023-07-08T03:18:20;24.70;47.40
70068;DHT22;57425;51.616;6.680;2023-07-08T03:20:48;24.70;47.60
70068;DHT22;57425;51.616;6.680;2023-07-08T03:23:13;24.60;47.50
70068;DHT22;57425;51.616;6.680;2023-07-08T03:25:39;24.60;47.70
70068;DHT22;57425;51.616;6.680;2023-07-08T03:28:07;24.60;47.70
70068;DHT22;57425;51.616;6.680;2023-07-08T03:30:34;24.60;48.30
70068;DHT22;57425;51.616;6.680;2023-07-08T03:33:00;24.60;47.80
70068;DHT22;57425;51.616;6.680;2023-07-08T03:35:25;24.60;47.70
70068;DHT22;57425;51.616;6.680;2023-07-08T03:37:52;24.60;47.80
70068;DHT22;57425;51.616;6.680;2023-07-08T03:40:17;24.60;47.80
70068;DHT22;57425;51.616;6.680;2023-07-08T03:42:43;24.50;47.90
70068;DHT22;57425;51.616;6.680;2023-07-08T03:45:09;24.50;48.00
70068;DHT22;57425;51.616;6.680;2023-07-08T03:47:35;24.50;48.00
70068;DHT22;57425;51.616;6.680;2023-07-08T03:50:00;24.50;48.00
70068;DHT22;57425;51.616;6.680;2023-07-08T03:52:26;24.50;48.00
70068;DHT22;57425;51.616;6.680;2023-07-08T03:54:51;24.50;48.00
70068;DHT22;57425;51.616;6.680;2023-07-08T03:57:17;24.50;48.00
70068;DHT22;57425;51.616;6.680;2023-07-08T03:59:43;24.50;48.00
70068;DHT22;57425;51.616;6.680;2023-07-08T04:02:10;24.50;48.10
70068;DHT22;57425;51.616;6.680;2023-07-08T04:04:37;24.40;48.10
70068;DHT22;57425;51.616;6.680;2023-07-08T04:07:07;24.40;48.20
70068;DHT22;57425;51.616;6.680;2023-07-08T04:09:33;24.40;48.40
70068;DHT22;57425;51.616;6.680;2023-07-08T04:11:58;24.40;48.40
70068;DHT22;57425;51.616;6.680;2023-07-08T04:14:25;24.40;48.40
70068;DHT22;57425;51.616;6.680;2023-07-08T04:16:54;24.40;48.40
70068;DHT22;57425;51.616;6.680;2023-07-08T04:19:22;24.40;48.40
70068;DHT22;57425;51.616;6.680;2023-07-08T04:21:48;24.40;48.40
70068;DHT22;57425;51.616;6.680;2023-07-08T04:24:15;24.40;48.50
70068;DHT22;57425;51.616;6.680;2023-07-08T04:26:41;24.40;48.50
70068;DHT22;57425;51.616;6.680;2023-07-08T04:29:18;24.40;48.50
70068;DHT22;57425;51.616;6.680;2023-07-08T04:31:44;24.40;48.60
70068;DHT22;57425;51.616;6.680;2023-07-08T04:34:10;24.30;48.60
70068;DHT22;57425;51.616;6.680;2023-07-08T04:36:36;24.30;48.60
70068;DHT22;57425;51.616;6.680;2023-07-08T04:39:03;24.30;49.20
70068;DHT22;57425;51.616;6.680;2023-07-08T04:41:30;24.30;48.80
70068;DHT22;57425;51.616;6.680;2023-07-08T04:43:55;24.30;48.80
70068;DHT22;57425;51.616;6.680;2023-07-08T04:48:54;24.30;48.90
70068;DHT22;57425;51.616;6.680;2023-07-08T04:51:20;24.30;48.90
70068;DHT22;57425;51.616;6.680;2023-07-08T04:53:46;24.20;48.10
70068;DHT22;57425;51.616;6.680;2023-07-08T04:56:12;24.30;48.80
70068;DHT22;57425;51.616;6.680;2023-07-08T04:58:37;24.30;48.80
70068;DHT22;57425;51.616;6.680;2023-07-08T05:01:03;24.20;48.80
70068;DHT22;57425;51.616;6.680;2023-07-08T05:03:28;24.20;48.90
70068;DHT22;57425;51.616;6.680;2023-07-08T05:05:54;24.20;48.90
70068;DHT22;57425;51.616;6.680;2023-07-08T05:08:20;24.20;49.10
70068;DHT22;57425;51.616;6.680;2023-07-08T05:10:45;24.20;49.10
70068;DHT22;57425;51.616;6.680;2023-07-08T05:13:11;24.20;49.10
70068;DHT22;57425;51.616;6.680;2023-07-08T05:15:36;24.20;49.10
70068;DHT22;57425;51.616;6.680;2023-07-08T05:18:02;24.20;49.10
70068;DHT22;57425;51.616;6.680;2023-07-08T05:20:27;24.20;49.20
70068;DHT22;57425;51.616;6.680;2023-07-08T05:22:54;24.20;49.30
70068;DHT22;57425;51.616;6.680;2023-07-08T05:25:20;24.10;49.20
70068;DHT22;57425;51.616;6.680;2023-07-08T05:27:46;24.10;49.30
70068;DHT22;57425;51.616;6.680;2023-07-08T05:30:15;24.20;49.40
70068;DHT22;57425;51.616;6.680;2023-07-08T05:32:42;24.10;49.40
70068;DHT22;57425;51.616;6.680;2023-07-08T05:35:08;24.10;49.30
70068;DHT22;57425;51.616;6.680;2023-07-08T05:37:33;24.10;49.50
70068;DHT22;57425;51.616;6.680;2023-07-08T05:39:59;24.10;49.50
70068;DHT22;57425;51.616;6.680;2023-07-08T05:42:27;24.10;49.50
70068;DHT22;57425;51.616;6.680;2023-07-08T05:44:53;24.10;49.60
70068;DHT22;57425;51.616;6.680;2023-07-08T05:47:20;24.10;49.60
70068;DHT22;57425;51.616;6.680;2023-07-08T05:49:47;24.10;49.60
70068;DHT22;57425;51.616;6.680;2023-07-08T05:52:12;24.10;49.60
70068;DHT22;57425;51.616;6.680;2023-07-08T05:54:39;24.10;49.60
70068;DHT22;57425;51.616;6.680;2023-07-08T05:57:06;24.10;49.70
70068;DHT22;57425;51.616;6.680;2023-07-08T05:59:32;24.10;49.70
70068;DHT22;57425;51.616;6.680;2023-07-08T06:01:57;24.10;49.80
70068;DHT22;57425;51.616;6.680;2023-07-08T06:04:23;24.10;49.70
70068;DHT22;57425;51.616;6.680;2023-07-08T06:06:48;24.00;49.70
70068;DHT22;57425;51.616;6.680;2023-07-08T06:09:14;24.00;49.60
70068;DHT22;57425;51.616;6.680;2023-07-08T06:11:40;24.10;49.70
70068;DHT22;57425;51.616;6.680;2023-07-08T06:14:05;24.10;49.80
70068;DHT22;57425;51.616;6.680;2023-07-08T06:16:31;24.10;49.80
70068;DHT22;57425;51.616;6.680;2023-07-08T06:18:57;24.10;49.70
70068;DHT22;57425;51.616;6.680;2023-07-08T06:21:23;24.10;49.90
70068;DHT22;57425;51.616;6.680;2023-07-08T06:23:49;24.10;50.00
70068;DHT22;57425;51.616;6.680;2023-07-08T06:26:14;24.10;49.90
70068;DHT22;57425;51.616;6.680;2023-07-08T06:28:40;24.10;50.00
70068;DHT22;57425;51.616;6.680;2023-07-08T06:31:06;24.10;50.00
70068;DHT22;57425;51.616;6.680;2023-07-08T06:33:31;24.10;50.60
70068;DHT22;57425;51.616;6.680;2023-07-08T06:35:57;24.10;50.10
70068;DHT22;57425;51.616;6.680;2023-07-08T06:38:22;24.10;50.70
70068;DHT22;57425;51.616;6.680;2023-07-08T06:40:48;24.10;50.10
70068;DHT22;57425;51.616;6.680;2023-07-08T06:43:13;24.10;50.10
70068;DHT22;57425;51.616;6.680;2023-07-08T06:45:40;24.10;50.20
70068;DHT22;57425;51.616;6.680;2023-07-08T06:48:06;24.10;50.20
70068;DHT22;57425;51.616;6.680;2023-07-08T06:50:32;24.10;50.10
70068;DHT22;57425;51.616;6.680;2023-07-08T06:52:58;24.10;50.10
70068;DHT22;57425;51.616;6.680;2023-07-08T06:55:23;24.10;50.80
70068;DHT22;57425;51.616;6.680;2023-07-08T06:57:49;24.20;50.90
70068;DHT22;57425;51.616;6.680;2023-07-08T07:00:15;24.20;50.30
70068;DHT22;57425;51.616;6.680;2023-07-08T07:02:40;24.20;50.40
70068;DHT22;57425;51.616;6.680;2023-07-08T07:05:07;24.20;50.40
70068;DHT22;57425;51.616;6.680;2023-07-08T07:07:33;24.20;50.50
70068;DHT22;57425;51.616;6.680;2023-07-08T07:09:59;24.20;50.60
70068;DHT22;57425;51.616;6.680;2023-07-08T07:12:27;24.20;50.50
70068;DHT22;57425;51.616;6.680;2023-07-08T07:14:52;24.20;50.70
70068;DHT22;57425;51.616;6.680;2023-07-08T07:17:22;24.20;50.60
70068;DHT22;57425;51.616;6.680;2023-07-08T07:19:48;24.30;50.80
70068;DHT22;57425;51.616;6.680;2023-07-08T07:22:14;24.20;50.70
70068;DHT22;57425;51.616;6.680;2023-07-08T07:24:40;24.30;50.70
70068;DHT22;57425;51.616;6.680;2023-07-08T07:27:06;24.30;50.70
70068;DHT22;57425;51.616;6.680;2023-07-08T07:29:48;24.30;50.70
70068;DHT22;57425;51.616;6.680;2023-07-08T07:32:15;24.30;50.70
70068;DHT22;57425;51.616;6.680;2023-07-08T07:34:41;24.30;50.80
70068;DHT22;57425;51.616;6.680;2023-07-08T07:37:12;24.30;50.80
70068;DHT22;57425;51.616;6.680;2023-07-08T07:39:38;24.40;51.00
70068;DHT22;57425;51.616;6.680;2023-07-08T07:42:04;24.40;50.90
70068;DHT22;57425;51.616;6.680;2023-07-08T07:44:29;24.40;51.00
70068;DHT22;57425;51.616;6.680;2023-07-08T07:46:55;24.50;51.10
70068;DHT22;57425;51.616;6.680;2023-07-08T07:49:21;24.50;51.10
70068;DHT22;57425;51.616;6.680;2023-07-08T07:51:47;24.50;51.10
70068;DHT22;57425;51.616;6.680;2023-07-08T07:54:14;24.60;51.20
70068;DHT22;57425;51.616;6.680;2023-07-08T07:56:40;24.60;51.10
70068;DHT22;57425;51.616;6.680;2023-07-08T07:59:05;24.60;51.10
70068;DHT22;57425;51.616;6.680;2023-07-08T08:01:31;24.70;51.20
70068;DHT22;57425;51.616;6.680;2023-07-08T08:03:56;24.70;51.10
70068;DHT22;57425;51.616;6.680;2023-07-08T08:06:22;24.70;51.10
70068;DHT22;57425;51.616;6.680;2023-07-08T08:08:48;24.80;51.10
70068;DHT22;57425;51.616;6.680;2023-07-08T08:11:15;24.80;51.00
70068;DHT22;57425;51.616;6.680;2023-07-08T08:13:41;24.80;51.00
70068;DHT22;57425;51.616;6.680;2023-07-08T08:16:07;24.80;51.10
70068;DHT22;57425;51.616;6.680;2023-07-08T08:18:32;24.80;51.10
70068;DHT22;57425;51.616;6.680;2023-07-08T08:20:58;24.90;51.60
70068;DHT22;57425;51.616;6.680;2023-07-08T08:23:24;24.90;50.90
70068;DHT22;57425;51.616;6.680;2023-07-08T08:25:52;24.90;50.80
70068;DHT22;57425;51.616;6.680;2023-07-08T08:28:18;25.00;50.70
70068;DHT22;57425;51.616;6.680;2023-07-08T08:30:48;25.00;50.80
70068;DHT22;57425;51.616;6.680;2023-07-08T08:33:14;25.00;50.70
70068;DHT22;57425;51.616;6.680;2023-07-08T08:35:39;25.10;51.40
70068;DHT22;57425;51.616;6.680;2023-07-08T08:38:05;25.10;50.70
70068;DHT22;57425;51.616;6.680;2023-07-08T08:40:31;25.10;50.80
70068;DHT22;57425;51.616;6.680;2023-07-08T08:43:22;25.10;50.70
70068;DHT22;57425;51.616;6.680;2023-07-08T08:45:51;25.10;50.80
70068;DHT22;57425;51.616;6.680;2023-07-08T08:48:19;25.20;50.90
70068;DHT22;57425;51.616;6.680;2023-07-08T08:50:50;25.10;50.90
70068;DHT22;57425;51.616;6.680;2023-07-08T08:53:18;25.20;50.80
70068;DHT22;57425;51.616;6.680;2023-07-08T08:55:59;25.20;50.90
70068;DHT22;57425;51.616;6.680;2023-07-08T08:58:44;25.30;51.20
70068;DHT22;57425;51.616;6.680;2023-07-08T09:01:15;25.30;51.00
70068;DHT22;57425;51.616;6.680;2023-07-08T09:04:10;25.30;51.20
70068;DHT22;57425;51.616;6.680;2023-07-08T09:06:39;25.30;51.00
70068;DHT22;57425;51.616;6.680;2023-07-08T09:09:19;25.30;51.50
70068;DHT22;57425;51.616;6.680;2023-07-08T09:12:03;25.40;50.90
70068;DHT22;57425;51.616;6.680;2023-07-08T09:14:33;25.50;51.00
70068;DHT22;57425;51.616;6.680;2023-07-08T09:19:35;25.50;50.90
70068;DHT22;57425;51.616;6.680;2023-07-08T09:22:12;25.60;51.00
70068;DHT22;57425;51.616;6.680;2023-07-08T09:24:49;25.70;50.90
70068;DHT22;57425;51.616;6.680;2023-07-08T09:27:17;25.70;50.90
70068;DHT22;57425;51.616;6.680;2023-07-08T09:29:42;25.70;50.80
70068;DHT22;57425;51.616;6.680;2023-07-08T09:32:21;25.80;51.50
70068;DHT22;57425;51.616;6.680;2023-07-08T09:35:02;25.80;50.80
70068;DHT22;57425;51.616;6.680;2023-07-08T09:37:34;25.80;50.90
70068;DHT22;57425;51.616;6.680;2023-07-08T09:40:03;25.90;50.90
70068;DHT22;57425;51.616;6.680;2023-07-08T09:42:32;25.90;50.80
70068;DHT22;57425;51.616;6.680;2023-07-08T09:45:03;25.90;51.00
70068;DHT22;57425;51.616;6.680;2023-07-08T09:47:36;25.90;50.80
70068;DHT22;57425;51.616;6.680;2023-07-08T09:52:46;26.00;50.70
70068;DHT22;57425;51.616;6.680;2023-07-08T09:55:13;26.00;51.20
70068;DHT22;57425;51.616;6.680;2023-07-08T09:57:39;26.00;50.60
70068;DHT22;57425;51.616;6.680;2023-07-08T10:00:12;26.00;50.60
70068;DHT22;57425;51.616;6.680;2023-07-08T10:02:43;26.10;50.60
70068;DHT22;57425;51.616;6.680;2023-07-08T10:05:14;26.00;50.60
70068;DHT22;57425;51.616;6.680;2023-07-08T10:07:42;26.10;50.50
70068;DHT22;57425;51.616;6.680;2023-07-08T10:10:14;26.10;50.40
70068;DHT22;57425;51.616;6.680;2023-07-08T10:12:43;26.20;50.40
70068;DHT22;57425;51.616;6.680;2023-07-08T10:15:18;26.20;50.20
70068;DHT22;57425;51.616;6.680;2023-07-08T10:17:46;26.30;49.70
70068;DHT22;57425;51.616;6.680;2023-07-08T10:20:13;26.30;50.00
70068;DHT22;57425;51.616;6.680;2023-07-08T10:22:53;26.40;49.80
70068;DHT22;57425;51.616;6.680;2023-07-08T10:25:36;26.40;49.50
70068;DHT22;57425;51.616;6.680;2023-07-08T10:28:24;26.40;49.70
70068;DHT22;57425;51.616;6.680;2023-07-08T10:31:16;26.40;49.50
70068;DHT22;57425;51.616;6.680;2023-07-08T10:42:04;26.60;49.00
70068;DHT22;57425;51.616;6.680;2023-07-08T10:52:41;26.70;48.40
70068;DHT22;57425;51.616;6.680;2023-07-08T11:06:26;26.90;47.80
70068;DHT22;57425;51.616;6.680;2023-07-08T11:08:55;27.00;47.90
70068;DHT22;57425;51.616;6.680;2023-07-08T11:11:45;27.00;48.10
70068;DHT22;57425;51.616;6.680;2023-07-08T11:19:24;27.00;48.30
70068;DHT22;57425;51.616;6.680;2023-07-08T11:21:53;27.10;48.00
70068;DHT22;57425;51.616;6.680;2023-07-08T11:27:02;27.20;47.50
70068;DHT22;57425;51.616;6.680;2023-07-08T11:29:36;27.20;47.60
70068;DHT22;57425;51.616;6.680;2023-07-08T11:32:04;27.20;47.50
70068;DHT22;57425;51.616;6.680;2023-07-08T11:34:31;27.30;47.50
70068;DHT22;57425;51.616;6.680;2023-07-08T11:36:59;27.30;47.40
70068;DHT22;57425;51.616;6.680;2023-07-08T11:39:45;27.30;47.40
70068;DHT22;57425;51.616;6.680;2023-07-08T11:42:42;27.40;47.50
70068;DHT22;57425;51.616;6.680;2023-07-08T11:45:37;27.40;47.30
70068;DHT22;57425;51.616;6.680;2023-07-08T11:50:44;27.50;47.00
70068;DHT22;57425;51.616;6.680;2023-07-08T11:53:31;27.50;46.90
70068;DHT22;57425;51.616;6.680;2023-07-08T11:56:47;27.60;46.80
70068;DHT22;57425;51.616;6.680;2023-07-08T12:03:54;27.60;46.50
70068;DHT22;57425;51.616;6.680;2023-07-08T12:06:48;27.70;46.20
70068;DHT22;57425;51.616;6.680;2023-07-08T12:09:48;27.70;46.40
70068;DHT22;57425;51.616;6.680;2023-07-08T12:12:24;27.80;46.50
70068;DHT22;57425;51.616;6.680;2023-07-08T12:14:52;27.80;46.50
70068;DHT22;57425;51.616;6.680;2023-07-08T12:17:19;27.80;46.70
70068;DHT22;57425;51.616;6.680;2023-07-08T12:19:47;27.90;58.40
70068;DHT22;57425;51.616;6.680;2023-07-08T12:22:13;27.90;46.50
70068;DHT22;57425;51.616;6.680;2023-07-08T12:24:40;27.90;46.40
70068;DHT22;57425;51.616;6.680;2023-07-08T12:29:31;28.00;45.50
70068;DHT22;57425;51.616;6.680;2023-07-08T12:31:58;28.00;46.30
70068;DHT22;57425;51.616;6.680;2023-07-08T12:34:25;28.00;46.30
70068;DHT22;57425;51.616;6.680;2023-07-08T12:36:53;28.10;46.50
70068;DHT22;57425;51.616;6.680;2023-07-08T12:39:19;28.10;46.40
70068;DHT22;57425;51.616;6.680;2023-07-08T12:41:46;28.20;46.40
70068;DHT22;57425;51.616;6.680;2023-07-08T12:44:21;28.20;46.80
70068;DHT22;57425;51.616;6.680;2023-07-08T12:46:48;28.20;46.10
70068;DHT22;57425;51.616;6.680;2023-07-08T12:49:16;28.20;46.40
70068;DHT22;57425;51.616;6.680;2023-07-08T12:51:43;28.30;46.10
70068;DHT22;57425;51.616;6.680;2023-07-08T12:54:10;28.20;46.00
70068;DHT22;57425;51.616;6.680;2023-07-08T12:56:37;28.30;46.10
70068;DHT22;57425;51.616;6.680;2023-07-08T12:59:04;28.30;46.10
70068;DHT22;57425;51.616;6.680;2023-07-08T13:01:32;28.30;46.20
70068;DHT22;57425;51.616;6.680;2023-07-08T13:04:05;28.30;46.10
70068;DHT22;57425;51.616;6.680;2023-07-08T13:06:33;28.40;46.60
70068;DHT22;57425;51.616;6.680;2023-07-08T13:11:48;28.40;45.50
70068;DHT22;57425;51.616;6.680;2023-07-08T13:14:15;28.40;45.80
70068;DHT22;57425;51.616;6.680;2023-07-08T13:16:42;28.50;46.10
70068;DHT22;57425;51.616;6.680;2023-07-08T13:19:11;28.50;45.90
70068;DHT22;57425;51.616;6.680;2023-07-08T13:21:37;28.50;45.80
70068;DHT22;57425;51.616;6.680;2023-07-08T13:24:08;28.60;46.00
70068;DHT22;57425;51.616;6.680;2023-07-08T13:26:35;28.60;45.80
70068;DHT22;57425;51.616;6.680;2023-07-08T13:29:11;28.70;48.30
70068;DHT22;57425;51.616;6.680;2023-07-08T13:31:39;28.80;56.90
70068;DHT22;57425;51.616;6.680;2023-07-08T13:34:15;28.70;46.00
70068;DHT22;57425;51.616;6.680;2023-07-08T13:36:43;28.70;45.70
70068;DHT22;57425;51.616;6.680;2023-07-08T13:39:19;28.90;52.80
70068;DHT22;57425;51.616;6.680;2023-07-08T13:41:46;28.80;45.90
70068;DHT22;57425;51.616;6.680;2023-07-08T13:44:11;28.80;45.80
70068;DHT22;57425;51.616;6.680;2023-07-08T13:46:39;28.80;45.80
70068;DHT22;57425;51.616;6.680;2023-07-08T13:49:24;28.80;45.70
70068;DHT22;57425;51.616;6.680;2023-07-08T13:51:50;29.00;55.60
70068;DHT22;57425;51.616;6.680;2023-07-08T13:54:22;28.90;45.70
70068;DHT22;57425;51.616;6.680;2023-07-08T13:56:49;29.00;45.30
70068;DHT22;57425;51.616;6.680;2023-07-08T13:59:21;29.00;45.70
70068;DHT22;57425;51.616;6.680;2023-07-08T14:01:47;29.00;45.80
70068;DHT22;57425;51.616;6.680;2023-07-08T14:04:18;29.00;45.90
70068;DHT22;57425;51.616;6.680;2023-07-08T14:06:44;29.00;45.40
70068;DHT22;57425;51.616;6.680;2023-07-08T14:09:13;29.00;45.20
70068;DHT22;57425;51.616;6.680;2023-07-08T14:11:40;29.00;45.30
70068;DHT22;57425;51.616;6.680;2023-07-08T14:14:07;29.00;45.40
70068;DHT22;57425;51.616;6.680;2023-07-08T14:16:35;29.00;45.30
70068;DHT22;57425;51.616;6.680;2023-07-08T14:19:04;29.00;45.50
70068;DHT22;57425;51.616;6.680;2023-07-08T14:21:31;29.00;45.50
70068;DHT22;57425;51.616;6.680;2023-07-08T14:23:57;29.00;45.50
70068;DHT22;57425;51.616;6.680;2023-07-08T14:26:23;29.00;45.50
70068;DHT22;57425;51.616;6.680;2023-07-08T14:28:48;29.00;45.50
70068;DHT22;57425;51.616;6.680;2023-07-08T14:31:19;29.10;45.50
70068;DHT22;57425;51.616;6.680;2023-07-08T14:33:45;29.10;45.50
70068;DHT22;57425;51.616;6.680;2023-07-08T14:36:12;29.10;45.50
70068;DHT22;57425;51.616;6.680;2023-07-08T14:38:38;29.10;45.50
70068;DHT22;57425;51.616;6.680;2023-07-08T14:41:04;29.10;45.60
70068;DHT22;57425;51.616;6.680;2023-07-08T14:43:31;29.10;45.40
70068;DHT22;57425;51.616;6.680;2023-07-08T14:46:00;29.10;45.50
70068;DHT22;57425;51.616;6.680;2023-07-08T14:48:31;29.20;46.30
70068;DHT22;57425;51.616;6.680;2023-07-08T14:50:57;29.20;45.80
70068;DHT22;57425;51.616;6.680;2023-07-08T14:53:23;29.20;45.70
70068;DHT22;57425;51.616;6.680;2023-07-08T14:55:52;29.20;45.70
70068;DHT22;57425;51.616;6.680;2023-07-08T14:58:33;29.20;45.40
70068;DHT22;57425;51.616;6.680;2023-07-08T15:01:08;29.30;45.20
70068;DHT22;57425;51.616;6.680;2023-07-08T15:03:36;29.30;45.60
70068;DHT22;57425;51.616;6.680;2023-07-08T15:08:28;29.30;45.00
70068;DHT22;57425;51.616;6.680;2023-07-08T15:10:53;29.20;45.60
70068;DHT22;57425;51.616;6.680;2023-07-08T15:13:21;29.30;45.50
70068;DHT22;57425;51.616;6.680;2023-07-08T15:15:48;29.30;45.80
70068;DHT22;57425;51.616;6.680;2023-07-08T15:18:16;29.30;45.80
70068;DHT22;57425;51.616;6.680;2023-07-08T15:20:43;29.40;45.20
70068;DHT22;57425;51.616;6.680;2023-07-08T15:23:12;29.30;45.80
70068;DHT22;57425;51.616;6.680;2023-07-08T15:25:41;29.40;45.20
70068;DHT22;57425;51.616;6.680;2023-07-08T15:28:14;29.40;45.30
70068;DHT22;57425;51.616;6.680;2023-07-08T15:30:41;29.40;45.30
70068;DHT22;57425;51.616;6.680;2023-07-08T15:33:08;29.40;45.40
70068;DHT22;57425;51.616;6.680;2023-07-08T15:35:34;29.50;45.40
70068;DHT22;57425;51.616;6.680;2023-07-08T15:38:00;29.50;45.70
70068;DHT22;57425;51.616;6.680;2023-07-08T15:40:32;29.50;45.50
70068;DHT22;57425;51.616;6.680;2023-07-08T15:43:00;29.60;46.00
70068;DHT22;57425;51.616;6.680;2023-07-08T15:45:31;29.60;46.20
70068;DHT22;57425;51.616;6.680;2023-07-08T15:47:57;29.60;45.90
70068;DHT22;57425;51.616;6.680;2023-07-08T15:50:24;29.60;45.80
70068;DHT22;57425;51.616;6.680;2023-07-08T15:52:51;29.60;45.20
70068;DHT22;57425;51.616;6.680;2023-07-08T15:55:36;29.70;45.60
70068;DHT22;57425;51.616;6.680;2023-07-08T15:58:05;29.70;45.30
70068;DHT22;57425;51.616;6.680;2023-07-08T16:00:34;29.70;45.50
70068;DHT22;57425;51.616;6.680;2023-07-08T16:03:22;29.70;45.40
70068;DHT22;57425;51.616;6.680;2023-07-08T16:05:49;29.70;45.30
70068;DHT22;57425;51.616;6.680;2023-07-08T16:08:15;29.70;45.50
70068;DHT22;57425;51.616;6.680;2023-07-08T16:10:41;29.70;45.60
70068;DHT22;57425;51.616;6.680;2023-07-08T16:13:10;29.70;45.40
70068;DHT22;57425;51.616;6.680;2023-07-08T16:15:37;29.80;45.70
70068;DHT22;57425;51.616;6.680;2023-07-08T16:18:04;29.80;45.10
70068;DHT22;57425;51.616;6.680;2023-07-08T16:20:34;29.80;45.00
70068;DHT22;57425;51.616;6.680;2023-07-08T16:22:59;29.80;45.00
70068;DHT22;57425;51.616;6.680;2023-07-08T16:25:46;29.80;44.60
70068;DHT22;57425;51.616;6.680;2023-07-08T16:28:29;29.90;44.40
70068;DHT22;57425;51.616;6.680;2023-07-08T16:30:56;29.90;45.10
70068;DHT22;57425;51.616;6.680;2023-07-08T16:33:22;29.90;44.30
70068;DHT22;57425;51.616;6.680;2023-07-08T16:35:47;29.90;44.20
70068;DHT22;57425;51.616;6.680;2023-07-08T16:38:13;29.90;44.20
70068;DHT22;57425;51.616;6.680;2023-07-08T16:40:40;29.90;44.30